Time;durP1;ratioP1;P1;durP2;ratioP2;P2;SDS_P1;SDS_P2;PMS_P1;PMS_P2;Temp;Humidity;BMP_temperature;BMP_pressure;BME280_temperature;BME280_humidity;BME280_pressure;Samples;Min_cycle;Max_cycle;Signal;HPM_P1;HPM_P2
2022/08/18 00:02:21;;;;;;;26.00;17.95;;;18.40;99.90;;;;;;5036703;28;20083;-60
2022/08/18 00:04:47;;;;;;;25.20;18.25;;;18.50;99.90;;;;;;5040189;28;20024;-59
2022/08/18 00:07:16;;;;;;;32.65;20.08;;;18.50;99.90;;;;;;5035682;28;20030;-57
2022/08/18 00:09:42;;;;;;;23.35;16.75;;;18.50;99.90;;;;;;5032280;28;20040;-60
2022/08/18 00:12:21;;;;;;;27.02;17.77;;;18.50;99.90;;;;;;5031848;28;20030;-60
2022/08/18 00:14:47;;;;;;;32.15;20.23;;;18.60;99.90;;;;;;5029048;28;20026;-59
2022/08/18 00:17:15;;;;;;;31.02;19.60;;;18.60;99.90;;;;;;5029789;28;20034;-58
2022/08/18 00:19:41;;;;;;;29.05;19.20;;;18.60;99.90;;;;;;5035757;28;20033;-58
2022/08/18 00:22:07;;;;;;;42.45;23.40;;;18.50;99.90;;;;;;5028437;28;20036;-59
2022/08/18 00:24:32;;;;;;;34.55;21.27;;;18.50;99.90;;;;;;5031113;28;20101;-60
2022/08/18 00:26:58;;;;;;;34.08;21.48;;;18.60;99.90;;;;;;5027631;28;20171;-59
2022/08/18 00:29:24;;;;;;;40.05;22.17;;;18.50;99.90;;;;;;5031086;28;20037;-59
2022/08/18 00:31:50;;;;;;;32.72;22.75;;;18.50;99.90;;;;;;5032207;28;20029;-58
2022/08/18 00:34:16;;;;;;;31.05;21.42;;;18.50;99.90;;;;;;5034657;28;20038;-57
2022/08/18 00:36:42;;;;;;;35.13;22.55;;;18.40;99.90;;;;;;5035539;28;20029;-59
2022/08/18 00:39:07;;;;;;;36.72;22.42;;;18.40;99.90;;;;;;5040192;28;20027;-58
2022/08/18 00:41:33;;;;;;;39.15;23.02;;;18.30;99.90;;;;;;5032678;28;20393;-58
2022/08/18 00:43:59;;;;;;;34.60;22.30;;;18.20;99.90;;;;;;5028504;28;20475;-60
2022/08/18 00:46:28;;;;;;;30.02;19.67;;;18.30;99.90;;;;;;5032375;28;20025;-59
2022/08/18 00:48:54;;;;;;;34.03;20.58;;;18.20;99.90;;;;;;5039186;28;20526;-59
2022/08/18 00:51:29;;;;;;;30.38;19.35;;;18.10;99.90;;;;;;5030555;28;20037;-60
2022/08/18 00:54:04;;;;;;;35.35;22.33;;;18.10;99.90;;;;;;5031660;28;20479;-55
2022/08/18 00:56:36;;;;;;;30.23;20.23;;;18.10;99.90;;;;;;5032607;28;20033;-59
2022/08/18 00:59:07;;;;;;;32.60;21.13;;;18.10;99.90;;;;;;5037512;28;20499;-54
2022/08/18 01:01:33;;;;;;;34.90;23.15;;;18.10;99.90;;;;;;5032011;28;20030;-59
2022/08/18 01:04:06;;;;;;;34.80;22.02;;;17.90;99.90;;;;;;5037886;28;20671;-59
2022/08/18 01:06:40;;;;;;;34.03;21.65;;;18.00;99.90;;;;;;5027606;28;20036;-59
2022/08/18 01:09:07;;;;;;;35.60;22.48;;;18.00;99.90;;;;;;5035549;28;20025;-59
2022/08/18 01:11:35;;;;;;;44.38;24.90;;;17.90;99.90;;;;;;5013016;28;20029;-59
2022/08/18 01:14:01;;;;;;;34.38;21.20;;;18.00;99.90;;;;;;5031126;28;20573;-58
2022/08/18 01:22:01;;;;;;;;;;;17.70;99.90;;;;;;5031740;28;20036;-57
2022/08/18 01:27:17;;;;;;;39.50;24.90;;;17.80;99.90;;;;;;5030951;28;20044;-60
2022/08/18 01:29:47;;;;;;;52.38;27.80;;;17.80;99.90;;;;;;5035912;28;20021;-60
2022/08/18 01:32:19;;;;;;;46.35;28.73;;;17.90;99.90;;;;;;5034381;28;20033;-58
2022/08/18 01:34:46;;;;;;;37.88;24.67;;;18.00;99.90;;;;;;5028932;28;20396;-59
2022/08/18 01:37:14;;;;;;;35.72;24.20;;;18.00;99.90;;;;;;5029316;28;20123;-58
2022/08/18 01:39:40;;;;;;;41.08;25.10;;;17.90;99.90;;;;;;5031260;28;21782;-60
2022/08/18 01:42:05;;;;;;;39.13;23.50;;;17.90;99.90;;;;;;5032993;28;20116;-59
2022/08/18 01:44:32;;;;;;;40.35;25.30;;;17.70;99.90;;;;;;5030413;28;20038;-57
2022/08/18 01:46:58;;;;;;;44.35;25.90;;;17.60;99.90;;;;;;5038346;28;20021;-59
2022/08/18 01:49:23;;;;;;;46.25;27.33;;;17.50;99.90;;;;;;5038143;28;20091;-59
2022/08/18 01:51:49;;;;;;;44.65;27.65;;;17.50;99.90;;;;;;5036156;28;20028;-56
2022/08/18 01:54:15;;;;;;;46.28;27.63;;;17.50;99.90;;;;;;5030005;28;20033;-60
2022/08/18 01:56:41;;;;;;;51.55;27.45;;;17.40;99.90;;;;;;5027978;28;20128;-60
2022/08/18 01:59:12;;;;;;;47.15;29.10;;;17.50;99.90;;;;;;5028990;28;20025;-60
2022/08/18 02:01:40;;;;;;;50.78;29.83;;;17.50;99.90;;;;;;5029452;28;20018;-60
2022/08/18 02:04:06;;;;;;;42.83;27.33;;;17.50;99.90;;;;;;5034679;28;20402;-56
2022/08/18 02:06:32;;;;;;;52.05;29.45;;;17.50;99.90;;;;;;5035220;28;20489;-53
2022/08/18 02:08:58;;;;;;;56.30;29.08;;;17.40;99.90;;;;;;5037336;28;20029;-55
2022/08/18 02:11:23;;;;;;;56.40;31.73;;;17.30;99.90;;;;;;5036216;28;20037;-53
2022/08/18 02:13:49;;;;;;;54.67;31.80;;;17.40;99.90;;;;;;5023628;28;20668;-59
2022/08/18 02:16:15;;;;;;;56.90;32.40;;;17.30;99.90;;;;;;5029699;28;20040;-58
2022/08/18 02:18:41;;;;;;;53.72;31.30;;;17.20;99.90;;;;;;5039604;28;20021;-59
2022/08/18 02:21:16;;;;;;;57.58;33.83;;;17.20;99.90;;;;;;5038971;28;20026;-58
2022/08/18 02:23:43;;;;;;;56.58;31.67;;;17.20;99.90;;;;;;5032465;28;20061;-56
2022/08/18 02:26:12;;;;;;;55.97;33.22;;;17.10;99.90;;;;;;5036316;28;20518;-58
2022/08/18 02:28:38;;;;;;;58.47;32.22;;;17.00;99.90;;;;;;5038727;28;20075;-55
2022/08/18 02:31:10;;;;;;;59.30;32.97;;;17.10;99.90;;;;;;5032839;28;20030;-56
2022/08/18 02:33:36;;;;;;;53.10;30.92;;;17.00;99.90;;;;;;5044525;28;20029;-55
2022/08/18 02:36:02;;;;;;;57.25;33.85;;;17.10;99.90;;;;;;5030591;28;20083;-59
2022/08/18 02:38:28;;;;;;;60.83;34.15;;;17.10;99.90;;;;;;5030340;28;20033;-59
2022/08/18 02:40:56;;;;;;;60.28;32.13;;;17.00;99.90;;;;;;5033652;28;20103;-59
2022/08/18 02:43:22;;;;;;;63.80;32.67;;;17.00;99.90;;;;;;5038012;28;20171;-59
2022/08/18 02:45:47;;;;;;;64.25;34.75;;;16.90;99.90;;;;;;5028296;28;20458;-59
2022/08/18 02:48:13;;;;;;;60.65;32.83;;;16.90;99.90;;;;;;5042466;28;20108;-58
2022/08/18 02:50:47;;;;;;;57.03;32.35;;;16.90;99.90;;;;;;5017341;28;20040;-58
2022/08/18 02:53:23;;;;;;;;;;;16.90;99.90;;;;;;5030349;28;20079;-59
2022/08/18 02:55:49;;;;;;;57.70;32.42;;;17.00;99.90;;;;;;5029728;28;19982;-59
2022/08/18 02:58:15;;;;;;;54.08;31.70;;;16.90;99.90;;;;;;5033539;28;20487;-55
2022/08/18 03:00:41;;;;;;;62.85;34.08;;;17.00;99.90;;;;;;5028954;28;20029;-57
2022/08/18 03:03:07;;;;;;;56.38;33.63;;;16.90;99.90;;;;;;5035474;28;20488;-58
2022/08/18 03:05:33;;;;;;;57.58;31.85;;;16.80;99.90;;;;;;5016610;28;20044;-60
2022/08/18 03:07:59;;;;;;;57.28;34.08;;;16.80;99.90;;;;;;5031956;28;20033;-60
2022/08/18 03:10:24;;;;;;;60.22;33.45;;;16.80;99.90;;;;;;5033488;28;20025;-59
2022/08/18 03:12:50;;;;;;;62.15;34.97;;;16.80;99.90;;;;;;5030139;28;20071;-60
2022/08/18 03:15:16;;;;;;;62.55;33.92;;;16.70;99.90;;;;;;5032187;28;20030;-60
2022/08/18 03:17:41;;;;;;;66.07;35.05;;;16.70;99.90;;;;;;5037913;28;20040;-54
2022/08/18 03:20:07;;;;;;;72.80;37.63;;;16.60;99.90;;;;;;5038082;28;20021;-59
2022/08/18 03:22:33;;;;;;;66.97;36.85;;;16.60;99.90;;;;;;5034787;28;20034;-59
2022/08/18 03:24:58;;;;;;;69.50;37.83;;;16.50;99.90;;;;;;5037714;28;20033;-59
2022/08/18 03:27:24;;;;;;;76.85;37.83;;;16.40;99.90;;;;;;5030814;28;20037;-60
2022/08/18 03:29:50;;;;;;;62.03;35.90;;;16.40;99.90;;;;;;5037027;28;20467;-60
2022/08/18 03:32:16;;;;;;;58.60;32.95;;;16.50;99.90;;;;;;5028910;28;20048;-60
2022/08/18 03:34:42;;;;;;;64.03;34.75;;;16.50;99.90;;;;;;5041198;28;20029;-60
2022/08/18 03:37:08;;;;;;;60.08;34.95;;;16.50;99.90;;;;;;5030227;28;20112;-60
2022/08/18 03:39:34;;;;;;;68.30;39.42;;;16.40;99.90;;;;;;5037294;28;20446;-54
2022/08/18 03:42:00;;;;;;;70.35;38.15;;;16.40;99.90;;;;;;5035101;28;20025;-60
2022/08/18 03:44:26;;;;;;;68.80;37.50;;;16.30;99.90;;;;;;5030952;28;20507;-60
2022/08/18 03:46:52;;;;;;;70.72;35.00;;;16.20;99.90;;;;;;5028282;28;20032;-58
2022/08/18 03:49:19;;;;;;;69.57;36.90;;;16.20;99.90;;;;;;5031968;28;20035;-60
2022/08/18 03:51:45;;;;;;;71.00;36.80;;;16.20;99.90;;;;;;5032470;28;20029;-59
2022/08/18 03:54:12;;;;;;;70.07;35.90;;;16.10;99.90;;;;;;5042924;28;20025;-56
2022/08/18 03:56:38;;;;;;;75.57;38.85;;;16.20;99.90;;;;;;5036611;28;20021;-59
2022/08/18 03:59:10;;;;;;;76.00;38.30;;;16.20;99.90;;;;;;5037146;28;20727;-53
2022/08/18 04:01:40;;;;;;;61.53;35.60;;;16.20;99.90;;;;;;5028437;28;20022;-55
2022/08/18 04:04:10;;;;;;;62.33;34.85;;;16.30;99.90;;;;;;5029595;28;20034;-54
2022/08/18 04:06:44;;;;;;;61.30;34.72;;;16.30;99.90;;;;;;5026538;28;20371;-60
2022/08/18 04:09:13;;;;;;;60.47;33.05;;;16.30;99.90;;;;;;5037090;28;20025;-60
2022/08/18 04:14:14;;;;;;;68.38;36.88;;;16.30;99.90;;;;;;5051873;22;20068;-61
2022/08/18 04:16:40;;;;;;;64.00;36.22;;;16.30;99.90;;;;;;5035862;28;20033;-60
2022/08/18 04:19:07;;;;;;;58.45;33.72;;;16.40;99.90;;;;;;5033194;28;20529;-60
2022/08/18 04:21:36;;;;;;;64.07;37.00;;;16.50;99.90;;;;;;5030450;28;20506;-60
2022/08/18 04:24:07;;;;;;;68.78;39.10;;;16.60;99.90;;;;;;5013700;28;20060;-61
2022/08/18 04:26:38;;;;;;;94.55;48.90;;;16.80;99.90;;;;;;5008540;28;20507;-62
2022/08/18 04:29:06;;;;;;;111.43;52.50;;;17.00;99.90;;;;;;5013400;28;20420;-59
2022/08/18 04:31:31;;;;;;;119.85;52.97;;;17.20;99.90;;;;;;5009853;28;20038;-60
2022/08/18 04:33:59;;;;;;;124.55;53.45;;;17.30;99.90;;;;;;5011839;28;20057;-60
2022/08/18 04:36:26;;;;;;;118.25;51.08;;;17.40;99.90;;;;;;5006050;28;20030;-60
2022/08/18 04:38:52;;;;;;;117.93;49.42;;;17.40;99.90;;;;;;5007441;28;20025;-61
2022/08/18 04:41:18;;;;;;;112.30;53.05;;;17.50;99.90;;;;;;5005040;28;20396;-60
2022/08/18 04:43:45;;;;;;;119.88;52.35;;;17.50;99.90;;;;;;5012134;28;20022;-60
2022/08/18 04:46:11;;;;;;;121.43;53.45;;;17.60;99.90;;;;;;5013371;28;20037;-60
2022/08/18 04:48:39;;;;;;;118.13;52.55;;;17.60;99.90;;;;;;5007337;28;20026;-61
2022/08/18 04:51:16;;;;;;;111.22;50.90;;;17.60;99.90;;;;;;5013452;28;20492;-60
2022/08/18 04:53:45;;;;;;;107.22;50.65;;;17.70;99.90;;;;;;5011527;28;20113;-60
2022/08/18 04:56:24;;;;;;;124.60;54.70;;;17.70;99.90;;;;;;5007519;28;20025;-60
2022/08/18 04:58:52;;;;;;;121.20;54.53;;;17.70;99.90;;;;;;5012396;28;20018;-61
2022/08/18 05:01:20;;;;;;;125.03;58.03;;;17.70;99.90;;;;;;5007786;28;20033;-59
2022/08/18 05:03:47;;;;;;;123.40;55.58;;;17.70;99.90;;;;;;5000511;28;20101;-60
2022/08/18 05:06:13;;;;;;;139.25;58.35;;;17.70;99.90;;;;;;5004942;28;20026;-60
2022/08/18 05:08:39;;;;;;;137.68;57.97;;;17.70;99.90;;;;;;5002294;28;20025;-61
2022/08/18 05:11:05;;;;;;;143.50;59.67;;;17.70;99.90;;;;;;5006971;28;20124;-60
2022/08/18 05:13:30;;;;;;;149.50;58.28;;;17.80;99.90;;;;;;5011034;28;20216;-61
2022/08/18 05:16:02;;;;;;;160.75;61.53;;;17.70;99.90;;;;;;5010117;28;20062;-63
2022/08/18 05:18:31;;;;;;;173.05;64.22;;;17.70;99.90;;;;;;5013073;28;20503;-61
2022/08/18 05:20:57;;;;;;;161.45;64.93;;;17.70;99.90;;;;;;5008094;28;20026;-61
2022/08/18 05:23:22;;;;;;;160.85;61.53;;;17.70;99.90;;;;;;5008341;28;20022;-61
2022/08/18 05:25:49;;;;;;;163.40;65.20;;;17.80;99.90;;;;;;5006892;28;20049;-60
2022/08/18 05:28:15;;;;;;;147.63;61.03;;;17.90;99.90;;;;;;5004113;28;20026;-58
2022/08/18 05:30:41;;;;;;;160.30;62.95;;;17.80;99.90;;;;;;5016211;28;20053;-60
2022/08/18 05:33:09;;;;;;;154.38;59.80;;;17.80;99.90;;;;;;5021177;28;20064;-60
2022/08/18 05:36:03;;;;;;;155.70;59.78;;;17.90;99.90;;;;;;5009398;28;20150;-61
2022/08/18 05:38:42;;;;;;;154.75;58.50;;;17.90;99.90;;;;;;5008431;28;20092;-59
2022/08/18 05:41:33;;;;;;;142.80;57.80;;;18.00;99.90;;;;;;5020791;28;20134;-60
2022/08/18 05:44:00;;;;;;;135.48;57.15;;;18.00;99.90;;;;;;5030655;28;20129;-61
2022/08/18 05:46:38;;;;;;;141.63;58.35;;;18.00;99.90;;;;;;5030672;28;20033;-61
2022/08/18 05:49:04;;;;;;;142.60;56.22;;;18.00;99.90;;;;;;5030703;28;20030;-61
2022/08/18 05:51:41;;;;;;;153.15;58.92;;;17.90;99.90;;;;;;5024499;28;20762;-60
2022/08/18 05:56:58;;;;;;;152.23;61.63;;;18.00;99.90;;;;;;5024784;28;20079;-60
2022/08/18 05:59:31;;;;;;;133.05;54.72;;;18.00;99.90;;;;;;5033152;28;20022;-60
2022/08/18 06:02:11;;;;;;;136.18;53.75;;;18.00;99.90;;;;;;5033330;28;20041;-59
2022/08/18 06:04:40;;;;;;;134.18;58.40;;;18.00;99.90;;;;;;5034463;28;20033;-60
2022/08/18 06:07:10;;;;;;;123.07;55.28;;;18.10;99.90;;;;;;5032077;28;20488;-60
2022/08/18 06:09:52;;;;;;;139.57;57.35;;;18.10;99.90;;;;;;5020261;28;20112;-59
2022/08/18 06:12:26;;;;;;;132.30;56.22;;;18.10;99.90;;;;;;5034290;28;20042;-60
2022/08/18 06:15:00;;;;;;;136.43;54.90;;;18.10;99.90;;;;;;5034944;28;20029;-60
2022/08/18 06:17:34;;;;;;;147.23;56.05;;;18.10;99.90;;;;;;5034054;28;20033;-61
2022/08/18 06:20:08;;;;;;;;;;;18.20;99.90;;;;;;5034540;28;20383;-61
2022/08/18 06:22:51;;;;;;;144.20;56.50;;;18.20;99.90;;;;;;5034034;28;19905;-60
2022/08/18 06:25:54;;;;;;;138.55;53.72;;;18.20;99.90;;;;;;5014859;28;20069;-60
2022/08/18 06:28:20;;;;;;;147.90;55.72;;;18.20;99.90;;;;;;5014927;28;20037;-60
2022/08/18 06:30:57;;;;;;;151.10;57.20;;;18.20;99.90;;;;;;5014666;28;20026;-60
2022/08/18 06:34:01;;;;;;;147.07;57.80;;;18.30;99.90;;;;;;5015281;28;20022;-60
2022/08/18 06:36:45;;;;;;;131.25;53.88;;;18.30;99.90;;;;;;5015260;28;20033;-60
2022/08/18 06:39:33;;;;;;;145.63;57.72;;;18.40;99.90;;;;;;5024086;28;20103;-60
2022/08/18 06:41:59;;;;;;;145.80;56.72;;;18.50;99.90;;;;;;5008738;28;20037;-60
2022/08/18 06:44:34;;;;;;;146.88;57.13;;;18.60;99.90;;;;;;5009474;28;20050;-60
2022/08/18 06:47:05;;;;;;;135.10;52.72;;;18.70;99.90;;;;;;5030079;28;20018;-60
2022/08/18 06:49:41;;;;;;;143.52;56.50;;;18.70;99.90;;;;;;5034464;28;20028;-58
2022/08/18 06:52:27;;;;;;;144.75;54.72;;;18.70;99.90;;;;;;5029201;28;20073;-61
2022/08/18 06:54:57;;;;;;;137.38;56.55;;;18.70;99.90;;;;;;5019901;28;20041;-61
2022/08/18 06:57:30;;;;;;;149.27;56.70;;;18.70;99.90;;;;;;5033394;28;20124;-61
2022/08/18 07:00:21;;;;;;;141.15;53.67;;;18.80;99.90;;;;;;5034551;28;20518;-61
2022/08/18 07:02:51;;;;;;;132.48;51.85;;;18.80;99.90;;;;;;5026276;28;20029;-61
2022/08/18 07:05:28;;;;;;;133.57;52.40;;;18.80;99.90;;;;;;5035864;28;20048;-61
2022/08/18 07:08:05;;;;;;;130.98;49.83;;;18.90;99.90;;;;;;5025543;28;20022;-61
2022/08/18 07:10:35;;;;;;;108.35;46.50;;;18.90;99.90;;;;;;5033358;28;20024;-60
2022/08/18 07:13:15;;;;;;;101.70;47.58;;;18.90;99.90;;;;;;5023157;28;20048;-61
2022/08/18 07:15:44;;;;;;;100.30;43.65;;;18.90;99.90;;;;;;5032190;28;20065;-59
2022/08/18 07:18:10;;;;;;;97.32;44.10;;;18.90;99.90;;;;;;5033565;28;20025;-61
2022/08/18 07:20:44;;;;;;;100.18;46.00;;;18.90;99.90;;;;;;5033640;28;20101;-61
2022/08/18 07:23:24;;;;;;;95.78;44.22;;;18.90;99.90;;;;;;5027186;28;20118;-61
2022/08/18 07:26:00;;;;;;;103.30;46.53;;;18.90;99.90;;;;;;5008046;28;20069;-60
2022/08/18 07:28:30;;;;;;;101.38;46.42;;;18.80;99.90;;;;;;5014246;28;20033;-60
2022/08/18 07:31:18;;;;;;;88.25;41.47;;;18.90;99.90;;;;;;5018220;28;20044;-59
2022/08/18 07:33:54;;;;;;;96.70;43.60;;;18.90;99.90;;;;;;5032802;28;20104;-60
2022/08/18 07:36:23;;;;;;;92.80;43.90;;;18.90;99.90;;;;;;5027989;28;20033;-61
2022/08/18 07:39:04;;;;;;;86.15;40.90;;;19.00;99.90;;;;;;5032750;28;20044;-59
2022/08/18 07:41:41;;;;;;;90.88;43.38;;;19.00;99.90;;;;;;5032924;28;20022;-59
2022/08/18 07:44:25;;;;;;;91.25;41.90;;;19.00;99.90;;;;;;5032447;28;20026;-60
2022/08/18 07:47:00;;;;;;;87.22;40.67;;;19.10;99.90;;;;;;5032275;28;20175;-61
2022/08/18 07:49:32;;;;;;;87.63;39.78;;;19.10;99.90;;;;;;5032491;28;20052;-61
2022/08/18 07:52:05;;;;;;;94.35;41.50;;;19.20;99.90;;;;;;5027034;28;20279;-60
2022/08/18 07:54:50;;;;;;;81.60;38.17;;;19.20;99.90;;;;;;5032342;28;20447;-60
2022/08/18 07:57:54;;;;;;;77.55;38.33;;;19.40;99.90;;;;;;5007222;28;20109;-59
2022/08/18 08:00:24;;;;;;;81.93;38.33;;;19.50;99.90;;;;;;5011046;28;20030;-61
2022/08/18 08:03:01;;;;;;;79.68;38.78;;;19.70;99.90;;;;;;5013193;28;20022;-61
2022/08/18 08:05:39;;;;;;;82.45;37.67;;;19.70;99.90;;;;;;5018128;28;20095;-61
2022/08/18 08:08:34;;;;;;;74.75;39.08;;;19.80;99.90;;;;;;5027517;28;20378;-61
2022/08/18 08:11:21;;;;;;;67.22;33.47;;;19.70;99.90;;;;;;5014021;28;20534;-59
2022/08/18 08:14:34;;;;;;;79.65;38.42;;;19.70;99.90;;;;;;5012973;28;20665;-59
2022/08/18 08:17:11;;;;;;;74.78;34.97;;;19.70;99.90;;;;;;5000542;28;20037;-61
2022/08/18 08:19:45;;;;;;;73.47;33.88;;;19.70;99.90;;;;;;5012623;28;20561;-61
2022/08/18 08:22:29;;;;;;;64.90;34.72;;;19.70;99.90;;;;;;5007984;28;20030;-60
2022/08/18 08:25:07;;;;;;;58.22;32.13;;;19.80;99.90;;;;;;5013036;28;20029;-60
2022/08/18 08:27:44;;;;;;;70.40;35.97;;;19.80;99.90;;;;;;5012478;28;20472;-60
2022/08/18 08:30:19;;;;;;;73.03;35.80;;;19.70;99.90;;;;;;5012944;28;20030;-59
2022/08/18 08:33:06;;;;;;;81.30;40.22;;;19.80;99.90;;;;;;5006350;28;20088;-61
2022/08/18 08:35:44;;;;;;;65.72;34.83;;;19.70;99.90;;;;;;5019881;28;20032;-62
2022/08/18 08:38:20;;;;;;;70.15;36.72;;;19.80;99.90;;;;;;5031515;28;20014;-63
2022/08/18 08:41:02;;;;;;;76.68;38.55;;;19.90;99.90;;;;;;5030389;28;20036;-59
2022/08/18 08:43:40;;;;;;;69.00;37.25;;;20.00;99.90;;;;;;5031534;28;20096;-60
2022/08/18 08:46:14;;;;;;;74.65;35.83;;;20.00;99.90;;;;;;5031193;28;20087;-61
2022/08/18 08:48:55;;;;;;;63.72;33.42;;;20.00;99.90;;;;;;5027701;28;20081;-60
2022/08/18 08:51:33;;;;;;;68.30;36.65;;;20.10;99.90;;;;;;5031416;28;20044;-60
2022/08/18 08:54:22;;;;;;;69.82;34.80;;;20.20;99.90;;;;;;5031285;28;20033;-59
2022/08/18 08:56:49;;;;;;;69.35;35.22;;;20.20;99.90;;;;;;5029594;28;20108;-61
2022/08/18 08:59:18;;;;;;;64.13;33.67;;;20.30;99.90;;;;;;5029912;28;20025;-59
2022/08/18 09:02:29;;;;;;;57.60;31.08;;;20.40;99.90;;;;;;5005863;28;20064;-60
2022/08/18 09:05:13;;;;;;;61.85;32.35;;;20.40;99.90;;;;;;4929564;29;20031;-59
2022/08/18 09:07:46;;;;;;;64.90;31.77;;;20.40;99.90;;;;;;4931870;29;20035;-60
2022/08/18 09:10:48;;;;;;;64.05;32.83;;;20.50;99.90;;;;;;4986706;28;20069;-61
2022/08/18 09:13:41;;;;;;;55.92;31.63;;;20.60;99.90;;;;;;5030828;28;20030;-59
2022/08/18 09:16:26;;;;;;;56.28;30.23;;;20.80;99.90;;;;;;5024387;28;20076;-62
2022/08/18 09:19:06;;;;;;;65.68;32.03;;;20.90;99.90;;;;;;5027798;28;20084;-60
2022/08/18 09:21:40;;;;;;;59.50;32.80;;;20.70;99.90;;;;;;5014316;28;20037;-60
2022/08/18 09:24:28;;;;;;;54.50;30.90;;;20.90;99.90;;;;;;5011816;28;20022;-58
2022/08/18 09:27:03;;;;;;;59.00;30.10;;;20.90;99.90;;;;;;5011597;28;20033;-59
2022/08/18 09:29:37;;;;;;;53.15;30.73;;;20.80;99.90;;;;;;5011999;28;20061;-60
2022/08/18 09:32:24;;;;;;;57.42;30.23;;;21.00;99.90;;;;;;5010396;28;20029;-60
2022/08/18 09:34:55;;;;;;;49.72;27.30;;;21.10;99.90;;;;;;5004635;28;20037;-61
2022/08/18 09:37:26;;;;;;;51.65;28.40;;;21.20;99.90;;;;;;5011693;28;20022;-60
2022/08/18 09:43:24;;;;;;;49.10;29.67;;;21.40;99.90;;;;;;5011902;28;20515;-61
2022/08/18 09:45:59;;;;;;;52.93;30.10;;;21.10;99.90;;;;;;5011528;28;20022;-60
2022/08/18 09:48:44;;;;;;;50.50;29.38;;;21.20;99.90;;;;;;5026416;28;20036;-60
2022/08/18 09:51:30;;;;;;;52.90;30.20;;;21.30;99.90;;;;;;5030586;28;20460;-61
2022/08/18 09:54:12;;;;;;;62.85;33.58;;;21.40;99.90;;;;;;5030435;28;20032;-61
2022/08/18 09:56:49;;;;;;;56.05;31.45;;;21.30;99.90;;;;;;5030450;28;20238;-60
2022/08/18 09:59:33;;;;;;;58.33;32.97;;;21.40;99.90;;;;;;5030604;28;20017;-60
2022/08/18 10:02:12;;;;;;;56.10;31.23;;;21.30;99.90;;;;;;5020115;28;20080;-59
2022/08/18 10:04:47;;;;;;;55.78;32.45;;;21.60;99.90;;;;;;5019329;28;20013;-59
2022/08/18 10:07:36;;;;;;;56.70;31.05;;;21.70;99.90;;;;;;5030544;28;20026;-61
2022/08/18 10:10:08;;;;;;;51.40;29.92;;;21.80;99.90;;;;;;5023428;28;20520;-61
2022/08/18 10:12:55;;;;;;;55.38;30.00;;;21.80;99.90;;;;;;5051589;22;20029;-57
2022/08/18 10:15:55;;;;;;;56.15;31.17;;;21.90;99.90;;;;;;5005346;28;20029;-59
2022/08/18 10:18:33;;;;;;;50.90;26.88;;;22.10;99.90;;;;;;5039023;28;20617;-61
2022/08/18 10:21:11;;;;;;;53.97;29.05;;;22.30;99.90;;;;;;5048399;28;20040;-59
2022/08/18 10:23:54;;;;;;;56.75;30.10;;;22.30;99.90;;;;;;5038108;28;20047;-60
2022/08/18 10:26:28;;;;;;;46.85;28.00;;;22.40;99.90;;;;;;5028394;28;20590;-60
2022/08/18 10:28:57;;;;;;;49.33;26.30;;;22.30;99.90;;;;;;5029349;28;20045;-57
2022/08/18 10:31:24;;;;;;;49.53;28.92;;;22.50;99.90;;;;;;5021263;28;20030;-58
2022/08/18 10:34:00;;;;;;;51.90;29.25;;;22.70;99.90;;;;;;5028784;28;20946;-61
2022/08/18 10:36:46;;;;;;;50.28;30.20;;;22.90;99.90;;;;;;5028580;28;20064;-61
2022/08/18 10:39:21;;;;;;;47.10;28.13;;;22.80;99.90;;;;;;5031537;28;20025;-58
2022/08/18 10:41:56;;;;;;;43.30;25.95;;;23.00;99.90;;;;;;5031217;28;20028;-60
2022/08/18 10:44:23;;;;;;;36.55;23.85;;;22.90;99.90;;;;;;5007237;28;20022;-57
2022/08/18 10:46:49;;;;;;;35.70;22.55;;;22.90;99.90;;;;;;5020462;28;20025;-58
2022/08/18 10:49:24;;;;;;;39.53;27.00;;;22.90;99.90;;;;;;5032324;28;20041;-59
2022/08/18 10:52:22;;;;;;;42.90;25.77;;;22.80;99.90;;;;;;5032287;28;20103;-59
2022/08/18 10:54:59;;;;;;;38.53;24.77;;;22.90;99.90;;;;;;5031790;28;20033;-59
2022/08/18 10:57:31;;;;;;;37.80;25.80;;;23.00;99.90;;;;;;5031822;28;20033;-59
2022/08/18 11:00:12;;;;;;;41.92;24.60;;;23.20;99.90;;;;;;5025041;28;20053;-58
2022/08/18 11:02:52;;;;;;;46.70;27.70;;;23.20;99.90;;;;;;5021893;28;20026;-59
2022/08/18 11:05:23;;;;;;;40.30;23.70;;;22.90;99.90;;;;;;5030849;28;20021;-56
2022/08/18 11:07:53;;;;;;;40.17;25.48;;;22.60;99.90;;;;;;5031841;28;20467;-60
2022/08/18 11:10:23;;;;;;;41.78;23.85;;;22.70;99.90;;;;;;5031870;28;20052;-57
2022/08/18 11:13:14;;;;;;;34.78;21.67;;;22.80;99.90;;;;;;5017809;28;20021;-60
2022/08/18 11:15:55;;;;;;;40.63;24.13;;;22.90;99.90;;;;;;5027098;28;20038;-59
2022/08/18 11:18:30;;;;;;;35.78;22.65;;;23.00;99.90;;;;;;5015666;28;20022;-59
2022/08/18 11:21:22;;;;;;;37.08;22.90;;;23.00;99.90;;;;;;5012858;28;20018;-58
2022/08/18 11:24:14;;;;;;;35.75;23.17;;;23.10;99.90;;;;;;5012678;28;20022;-58
2022/08/18 11:26:49;;;;;;;47.58;26.65;;;23.20;99.90;;;;;;5008850;28;20034;-58
2022/08/18 11:29:25;;;;;;;34.20;23.45;;;23.20;99.90;;;;;;5011439;28;20037;-60
2022/08/18 11:32:12;;;;;;;37.97;23.98;;;23.30;99.90;;;;;;5013036;28;20049;-58
2022/08/18 11:34:51;;;;;;;43.10;25.25;;;23.30;99.90;;;;;;5009754;28;20544;-57
2022/08/18 11:37:46;;;;;;;42.10;23.15;;;23.10;99.90;;;;;;5005729;28;20124;-60
2022/08/18 11:40:17;;;;;;;35.75;23.50;;;23.40;99.90;;;;;;5007937;28;20428;-60
2022/08/18 11:42:51;;;;;;;35.42;21.08;;;23.40;99.90;;;;;;5016564;28;20380;-59
2022/08/18 11:45:19;;;;;;;;;;;23.50;99.90;;;;;;5011128;28;20108;-58
2022/08/18 11:48:21;;;;;;;37.65;22.88;;;23.50;99.90;;;;;;5001427;28;19917;-58
2022/08/18 11:51:00;;;;;;;36.88;23.00;;;23.40;99.90;;;;;;5013887;28;20068;-58
2022/08/18 11:53:31;;;;;;;36.03;21.92;;;23.80;99.90;;;;;;5011884;28;20451;-59
2022/08/18 11:56:18;;;;;;;35.22;21.23;;;24.10;99.90;;;;;;5000207;28;20535;-57
2022/08/18 11:58:55;;;;;;;39.95;24.88;;;24.30;99.90;;;;;;5001359;28;20026;-60
2022/08/18 12:01:50;;;;;;;36.70;23.20;;;24.50;99.90;;;;;;5005847;28;20030;-59
2022/08/18 12:04:19;;;;;;;36.97;23.02;;;24.60;99.90;;;;;;5002059;28;20017;-59
2022/08/18 12:06:54;;;;;;;38.40;25.10;;;24.70;99.90;;;;;;5001882;28;20122;-56
2022/08/18 12:09:21;;;;;;;29.90;19.25;;;24.50;99.90;;;;;;5010532;28;20056;-58
2022/08/18 12:12:02;;;;;;;39.38;23.95;;;24.30;99.90;;;;;;5009007;28;20455;-57
2022/08/18 12:14:50;;;;;;;35.65;24.23;;;24.20;99.90;;;;;;5002546;28;20124;-58
2022/08/18 12:17:16;;;;;;;34.20;22.40;;;24.20;99.90;;;;;;5001547;28;20065;-58
2022/08/18 12:19:42;;;;;;;48.35;27.27;;;24.00;99.90;;;;;;5000492;28;20445;-58
2022/08/18 12:22:23;;;;;;;39.88;24.92;;;23.90;99.90;;;;;;5006619;28;20048;-58
2022/08/18 12:24:50;;;;;;;38.15;24.67;;;23.80;99.90;;;;;;5000341;28;20403;-59
2022/08/18 12:27:21;;;;;;;34.67;21.92;;;23.80;99.90;;;;;;5008154;28;20029;-59
2022/08/18 12:29:46;;;;;;;34.53;22.95;;;23.90;99.90;;;;;;5002670;28;20029;-61
2022/08/18 12:32:13;;;;;;;33.78;22.67;;;23.90;99.90;;;;;;5002172;28;20037;-59
2022/08/18 12:34:39;;;;;;;38.03;25.50;;;23.90;99.90;;;;;;4997194;28;20033;-62
2022/08/18 12:37:07;;;;;;;35.88;23.92;;;23.90;99.90;;;;;;5004404;28;20480;-61
2022/08/18 12:39:34;;;;;;;37.00;22.55;;;23.90;99.90;;;;;;5004507;28;20454;-60
2022/08/18 12:42:01;;;;;;;40.47;25.95;;;24.00;99.90;;;;;;5005412;28;20034;-61
2022/08/18 12:44:27;;;;;;;38.17;21.08;;;24.10;99.90;;;;;;4991401;28;20034;-62
2022/08/18 12:46:54;;;;;;;31.00;21.92;;;24.10;99.90;;;;;;4999195;28;20031;-60
2022/08/18 12:49:22;;;;;;;35.70;23.50;;;24.20;99.90;;;;;;5023614;28;20036;-59
2022/08/18 12:54:27;;;;;;;25.60;18.02;;;24.10;99.90;;;;;;5089776;22;20725;-67
2022/08/18 12:56:57;;;;;;;35.60;21.52;;;24.30;99.90;;;;;;5006802;28;20048;-66
2022/08/18 12:59:23;;;;;;;35.60;22.13;;;24.50;99.90;;;;;;5027453;28;20032;-66
2022/08/18 13:01:53;;;;;;;37.90;23.20;;;24.70;99.90;;;;;;5024336;28;20029;-66
2022/08/18 13:04:19;;;;;;;39.13;23.80;;;24.80;99.90;;;;;;5007640;28;20033;-68
2022/08/18 13:06:52;;;;;;;37.58;26.35;;;25.10;99.90;;;;;;5004278;28;20033;-67
2022/08/18 13:09:19;;;;;;;33.65;23.20;;;25.10;99.90;;;;;;5007033;28;20172;-66
2022/08/18 13:11:45;;;;;;;45.03;27.67;;;25.10;99.90;;;;;;4992228;28;20025;-66
2022/08/18 13:14:11;;;;;;;36.65;24.23;;;25.00;99.90;;;;;;5026864;28;20065;-67
2022/08/18 13:16:41;;;;;;;40.22;28.65;;;25.10;99.90;;;;;;5004859;28;20079;-66